Time;durP1;ratioP1;P1;durP2;ratioP2;P2;SDS_P1;SDS_P2;PMS_P1;PMS_P2;Temp;Humidity;BMP_temperature;BMP_pressure;BME280_temperature;BME280_humidity;BME280_pressure;Samples;Min_cycle;Max_cycle;Signal;HPM_P1;HPM_P2
2021/10/24 00:01:19;;;;;;;15.15;8.70;;;;;;;4.56;100.00;97456.88;5022686;28;20615;-57
2021/10/24 00:03:48;;;;;;;12.82;9.00;;;;;;;4.55;100.00;97463.88;5040712;28;20446;-57
2021/10/24 00:06:16;;;;;;;16.40;10.00;;;;;;;4.62;100.00;97467.00;5043756;28;20068;-56
2021/10/24 00:08:44;;;;;;;15.27;8.88;;;;;;;4.60;100.00;97467.06;5019466;28;20076;-58
2021/10/24 00:11:14;;;;;;;13.55;8.93;;;;;;;4.73;100.00;97469.88;5038552;28;20072;-59
2021/10/24 00:13:43;;;;;;;15.90;9.40;;;;;;;4.62;100.00;97451.34;5029070;28;20065;-60
2021/10/24 00:16:12;;;;;;;12.13;9.43;;;;;;;4.47;100.00;97451.25;5024466;28;20060;-59
2021/10/24 00:18:40;;;;;;;12.48;9.07;;;;;;;4.54;100.00;97454.34;5022100;28;20056;-57
2021/10/24 00:21:09;;;;;;;16.80;10.07;;;;;;;4.72;100.00;97449.91;5045555;28;20472;-57
2021/10/24 00:23:37;;;;;;;14.63;8.75;;;;;;;4.72;100.00;97455.97;5017291;28;20069;-59
2021/10/24 00:26:06;;;;;;;14.25;9.10;;;;;;;4.56;100.00;97449.88;5024248;28;20064;-56
2021/10/24 00:28:36;;;;;;;13.10;9.43;;;;;;;4.37;100.00;97447.44;5022031;28;20068;-56
2021/10/24 00:31:04;;;;;;;10.27;8.00;;;;;;;4.40;100.00;97447.25;5021002;28;20041;-58
2021/10/24 00:33:34;;;;;;;12.10;8.35;;;;;;;4.25;100.00;97443.69;5025600;28;20095;-58
2021/10/24 00:36:20;;;;;;;12.75;8.43;;;;;;;4.44;100.00;97447.94;5015821;28;20481;-59
2021/10/24 00:38:48;;;;;;;14.57;8.25;;;;;;;4.41;100.00;97438.50;5039690;28;20080;-58
2021/10/24 00:41:18;;;;;;;10.95;8.27;;;;;;;4.32;100.00;97446.00;5030123;28;20517;-58
2021/10/24 00:43:47;;;;;;;12.07;8.65;;;;;;;4.29;100.00;97439.16;5039819;28;20091;-56
2021/10/24 00:46:16;;;;;;;13.13;8.40;;;;;;;4.32;100.00;97433.78;5035773;28;20064;-58
2021/10/24 00:48:59;;;;;;;13.05;8.15;;;;;;;4.41;100.00;97429.84;5047706;28;20080;-59
2021/10/24 00:51:27;;;;;;;12.70;8.23;;;;;;;4.41;100.00;97432.44;5036251;28;20084;-56
2021/10/24 00:53:56;;;;;;;12.32;8.73;;;;;;;4.37;100.00;97430.91;5043488;28;20088;-60
2021/10/24 00:56:25;;;;;;;10.25;8.20;;;;;;;4.27;100.00;97430.56;5040007;28;20448;-58
2021/10/24 00:58:55;;;;;;;11.65;8.38;;;;;;;4.34;100.00;97426.72;5028707;28;20128;-58
2021/10/24 01:01:23;;;;;;;11.35;8.85;;;;;;;4.14;100.00;97414.72;5016820;28;20124;-59
2021/10/24 01:03:52;;;;;;;16.02;8.77;;;;;;;4.20;100.00;97414.41;5025329;28;20524;-56
2021/10/24 01:06:20;;;;;;;13.63;9.52;;;;;;;4.16;100.00;97418.06;5035192;28;20080;-58
2021/10/24 01:08:48;;;;;;;14.70;9.20;;;;;;;4.30;100.00;97414.72;5038416;28;20133;-59
2021/10/24 01:11:17;;;;;;;14.65;10.20;;;;;;;4.23;100.00;97415.97;5038936;28;20061;-59
2021/10/24 01:13:45;;;;;;;17.40;10.27;;;;;;;4.44;100.00;97406.13;5029168;28;20073;-59
2021/10/24 01:16:16;;;;;;;16.60;10.20;;;;;;;4.56;100.00;97399.41;5020141;28;20067;-57
2021/10/24 01:18:46;;;;;;;12.73;9.50;;;;;;;4.41;100.00;97403.72;5036653;28;20072;-57
2021/10/24 01:21:16;;;;;;;17.52;10.43;;;;;;;4.59;100.00;97401.88;5043042;28;20093;-58
2021/10/24 01:23:44;;;;;;;18.45;9.82;;;;;;;4.58;100.00;97400.19;5017073;28;20562;-59
2021/10/24 01:26:13;;;;;;;19.23;9.88;;;;;;;4.62;100.00;97399.09;5018987;28;20073;-60
2021/10/24 01:28:42;;;;;;;16.00;9.25;;;;;;;4.59;100.00;97391.41;5023749;28;20061;-57
2021/10/24 01:31:10;;;;;;;14.75;9.88;;;;;;;4.60;100.00;97388.72;5030853;28;20876;-55
2021/10/24 01:33:39;;;;;;;12.65;9.60;;;;;;;4.60;100.00;97391.31;5040280;28;20060;-60
2021/10/24 01:36:09;;;;;;;15.65;9.95;;;;;;;4.60;100.00;97386.09;5050284;28;20498;-58
2021/10/24 01:38:44;;;;;;;14.05;9.23;;;;;;;4.62;100.00;97386.88;5039949;28;20135;-57
2021/10/24 01:41:13;;;;;;;13.68;8.95;;;;;;;4.46;100.00;97388.63;5044149;28;20504;-58
2021/10/24 01:43:41;;;;;;;17.80;10.27;;;;;;;4.61;100.00;97381.72;5030355;28;20517;-59
2021/10/24 01:46:10;;;;;;;15.25;9.32;;;;;;;4.44;100.00;97380.91;5029510;28;20107;-57
2021/10/24 01:48:38;;;;;;;19.25;10.20;;;;;;;4.32;100.00;97385.94;5041159;28;20072;-56
2021/10/24 01:51:07;;;;;;;13.07;9.32;;;;;;;4.29;100.00;97382.56;5025518;28;20096;-58
2021/10/24 01:53:37;;;;;;;14.52;9.52;;;;;;;4.21;100.00;97383.91;5026425;28;20069;-58
2021/10/24 01:56:08;;;;;;;17.75;10.80;;;;;;;4.26;100.00;97380.09;5040536;28;20069;-58
2021/10/24 01:58:36;;;;;;;;;;;;;;;4.44;100.00;97370.44;5037630;28;20080;-58
2021/10/24 02:01:06;;;;;;;13.70;9.27;;;;;;;4.33;100.00;97374.56;5025840;28;19968;-59
2021/10/24 02:03:35;;;;;;;17.35;10.85;;;;;;;4.37;100.00;97365.63;5028533;28;20095;-57
2021/10/24 02:06:05;;;;;;;13.13;9.95;;;;;;;4.25;100.00;97369.75;5017531;28;20084;-59
2021/10/24 02:08:34;;;;;;;14.90;9.30;;;;;;;4.35;100.00;97365.72;5030240;28;20556;-59
2021/10/24 02:11:02;;;;;;;13.98;9.13;;;;;;;4.21;100.00;97369.09;5022244;28;20080;-57
2021/10/24 02:13:32;;;;;;;14.77;9.60;;;;;;;4.28;100.00;97370.44;5027371;28;20076;-57
2021/10/24 02:16:01;;;;;;;15.45;9.00;;;;;;;4.28;100.00;97364.38;5038550;28;20112;-58
2021/10/24 02:18:30;;;;;;;14.77;9.55;;;;;;;4.15;100.00;97358.97;5038471;28;20077;-59
2021/10/24 02:20:58;;;;;;;14.65;10.02;;;;;;;4.19;100.00;97364.84;5036472;28;20072;-60
2021/10/24 02:23:26;;;;;;;17.33;9.13;;;;;;;4.28;100.00;97359.97;5041619;28;20068;-58
2021/10/24 02:25:55;;;;;;;14.85;8.68;;;;;;;4.36;100.00;97362.16;5030891;28;20065;-57
2021/10/24 02:28:24;;;;;;;14.10;9.10;;;;;;;4.43;100.00;97354.84;5052971;28;20040;-57
2021/10/24 02:30:53;;;;;;;13.90;8.40;;;;;;;4.09;100.00;97355.84;5032761;28;20127;-58
2021/10/24 02:33:22;;;;;;;12.98;9.02;;;;;;;4.07;100.00;97366.38;5019837;28;20076;-56
2021/10/24 02:35:50;;;;;;;14.80;9.55;;;;;;;4.17;100.00;97358.91;5042354;28;20085;-58
2021/10/24 02:38:20;;;;;;;12.63;9.23;;;;;;;4.27;100.00;97352.25;5028181;28;20049;-59
2021/10/24 02:40:48;;;;;;;15.93;9.32;;;;;;;4.17;100.00;97362.34;5025149;28;20148;-56
2021/10/24 02:43:17;;;;;;;15.65;9.00;;;;;;;4.00;100.00;97350.19;5026957;28;20084;-56
2021/10/24 02:45:45;;;;;;;10.77;8.75;;;;;;;4.20;100.00;97350.91;5020311;28;20160;-59
2021/10/24 02:48:15;;;;;;;13.65;8.93;;;;;;;4.18;100.00;97352.75;5018422;28;20073;-56
2021/10/24 02:50:43;;;;;;;16.10;9.73;;;;;;;4.13;100.00;97349.53;5013122;28;20227;-55
2021/10/24 02:53:12;;;;;;;13.73;8.77;;;;;;;4.00;100.00;97342.38;5041130;28;20071;-55
2021/10/24 02:55:40;;;;;;;14.60;9.45;;;;;;;4.06;100.00;97343.81;5025562;28;20324;-57
2021/10/24 02:58:09;;;;;;;13.90;9.15;;;;;;;4.10;100.00;97340.13;5026080;28;20472;-55
2021/10/24 03:00:37;;;;;;;16.02;9.45;;;;;;;4.16;100.00;97339.75;5022995;28;20065;-57
2021/10/24 03:03:06;;;;;;;13.77;9.00;;;;;;;4.03;100.00;97337.00;5018305;28;20069;-56
2021/10/24 03:05:36;;;;;;;15.98;9.07;;;;;;;3.92;100.00;97335.84;5034492;28;20093;-58
2021/10/24 03:08:05;;;;;;;13.90;9.07;;;;;;;3.99;100.00;97343.31;5018304;28;20072;-56
2021/10/24 03:10:33;;;;;;;12.40;8.23;;;;;;;3.90;100.00;97338.56;5036008;28;20077;-58
2021/10/24 03:13:04;;;;;;;14.98;8.80;;;;;;;3.77;100.00;97340.97;5035401;28;20060;-59
2021/10/24 03:15:33;;;;;;;12.70;8.65;;;;;;;3.84;100.00;97338.88;5037910;28;20053;-57
2021/10/24 03:18:01;;;;;;;12.35;8.80;;;;;;;3.91;100.00;97340.25;5029508;28;20091;-56
2021/10/24 03:20:29;;;;;;;15.05;8.82;;;;;;;3.89;100.00;97338.63;5020496;28;20503;-58
2021/10/24 03:22:59;;;;;;;13.32;8.52;;;;;;;4.16;100.00;97328.47;5031189;28;20072;-57
2021/10/24 03:25:28;;;;;;;13.90;8.70;;;;;;;4.02;100.00;97332.66;5039351;28;20073;-55
2021/10/24 03:27:56;;;;;;;15.35;8.93;;;;;;;4.17;100.00;97338.00;5044236;28;20128;-57
2021/10/24 03:30:25;;;;;;;13.05;8.32;;;;;;;4.21;100.00;97334.31;5044444;28;20087;-56
2021/10/24 03:32:53;;;;;;;16.15;8.30;;;;;;;4.23;100.00;97343.75;5038207;28;20088;-57
2021/10/24 03:35:22;;;;;;;13.20;8.45;;;;;;;4.15;100.00;97338.06;5042073;28;20065;-56
2021/10/24 03:37:50;;;;;;;17.77;8.85;;;;;;;4.29;100.00;97339.94;5032728;28;20072;-53
2021/10/24 03:40:20;;;;;;;15.63;8.00;;;;;;;4.26;100.00;97324.44;5022274;28;20061;-53
2021/10/24 03:42:49;;;;;;;12.07;8.52;;;;;;;4.25;100.00;97335.81;5024546;28;20061;-57
2021/10/24 03:45:18;;;;;;;12.30;8.50;;;;;;;4.17;100.00;97345.84;5027183;28;20072;-57
2021/10/24 03:47:47;;;;;;;10.90;8.65;;;;;;;4.01;100.00;97344.03;5040444;28;20081;-56
2021/10/24 03:50:15;;;;;;;13.88;8.38;;;;;;;4.04;100.00;97338.66;5021211;28;20076;-57
2021/10/24 03:52:44;;;;;;;12.13;7.53;;;;;;;3.97;100.00;97332.09;5036242;28;20164;-55
2021/10/24 03:55:13;;;;;;;11.05;7.75;;;;;;;4.25;100.00;97336.66;5039464;28;20065;-59
2021/10/24 03:57:44;;;;;;;13.10;8.57;;;;;;;3.95;100.00;97333.94;5037028;28;20056;-55
2021/10/24 04:00:13;;;;;;;16.60;8.68;;;;;;;4.07;100.00;97337.66;5033685;28;20076;-56
2021/10/24 04:02:53;;;;;;;11.80;8.40;;;;;;;4.20;100.00;97336.06;5019551;28;20452;-57
2021/10/24 04:05:22;;;;;;;13.48;8.15;;;;;;;3.98;100.00;97336.38;5037656;28;20444;-57
2021/10/24 04:07:51;;;;;;;13.85;8.10;;;;;;;4.08;100.00;97341.13;5040272;28;20458;-56
2021/10/24 04:10:21;;;;;;;16.92;8.10;;;;;;;4.18;100.00;97334.47;5043807;28;20466;-58
2021/10/24 04:12:52;;;;;;;13.93;7.50;;;;;;;4.05;100.00;97329.06;5040543;28;20547;-58
2021/10/24 04:15:21;;;;;;;11.10;7.55;;;;;;;3.93;100.00;97327.97;5045274;28;20092;-57
2021/10/24 04:17:50;;;;;;;12.60;7.70;;;;;;;3.93;100.00;97330.56;5028022;28;20073;-59
2021/10/24 04:20:19;;;;;;;12.60;8.18;;;;;;;3.68;100.00;97331.03;5040804;28;20083;-58
2021/10/24 04:22:49;;;;;;;14.50;8.47;;;;;;;3.91;100.00;97327.19;5038953;28;20493;-57
2021/10/24 04:25:19;;;;;;;12.95;7.97;;;;;;;3.61;100.00;97328.81;5030834;28;20463;-59
2021/10/24 04:27:47;;;;;;;12.68;8.77;;;;;;;3.78;100.00;97327.00;5011974;28;20115;-57
2021/10/24 04:30:17;;;;;;;12.13;7.80;;;;;;;3.97;100.00;97321.66;5017678;28;20073;-57
2021/10/24 04:32:46;;;;;;;13.40;8.30;;;;;;;3.91;100.00;97323.75;5026072;28;20362;-56
2021/10/24 04:35:15;;;;;;;13.80;7.75;;;;;;;3.75;100.00;97335.00;5017928;28;20061;-56
2021/10/24 04:37:44;;;;;;;14.93;8.10;;;;;;;3.67;100.00;97329.34;5029648;28;20057;-58
2021/10/24 04:40:12;;;;;;;11.55;8.38;;;;;;;3.84;100.00;97319.78;5025998;28;20474;-58
2021/10/24 04:42:41;;;;;;;11.88;8.00;;;;;;;3.76;100.00;97325.41;5012267;28;20099;-58
2021/10/24 04:45:10;;;;;;;14.48;8.27;;;;;;;3.69;100.00;97322.28;5028640;28;20094;-57
2021/10/24 04:47:40;;;;;;;20.60;8.77;;;;;;;3.87;100.00;97307.41;5024590;28;20061;-59
2021/10/24 04:50:10;;;;;;;13.23;8.45;;;;;;;3.60;100.00;97314.09;5019248;28;20079;-58
2021/10/24 04:52:39;;;;;;;10.23;7.90;;;;;;;3.69;100.00;97319.69;5022455;28;20651;-54
2021/10/24 04:55:08;;;;;;;12.35;8.73;;;;;;;3.67;100.00;97311.06;5013440;28;20062;-56
2021/10/24 04:57:37;;;;;;;11.43;8.30;;;;;;;3.52;100.00;97317.13;5015251;28;20101;-60
2021/10/24 05:00:06;;;;;;;16.40;9.30;;;;;;;3.68;100.00;97315.41;5043963;28;20069;-54
2021/10/24 05:02:35;;;;;;;18.13;9.15;;;;;;;3.64;100.00;97307.78;5017530;28;20478;-56
2021/10/24 05:05:06;;;;;;;15.32;8.90;;;;;;;3.57;100.00;97309.88;5017206;28;20081;-57
2021/10/24 05:07:35;;;;;;;14.05;8.77;;;;;;;3.52;100.00;97311.91;5021148;28;20084;-57
2021/10/24 05:10:05;;;;;;;15.95;9.02;;;;;;;3.77;100.00;97303.63;5027227;28;20085;-57
2021/10/24 05:12:33;;;;;;;17.77;8.82;;;;;;;3.83;100.00;97307.66;5016157;28;20100;-57
2021/10/24 05:15:02;;;;;;;13.93;8.60;;;;;;;3.67;100.00;97303.25;5032356;28;20080;-59
2021/10/24 05:17:30;;;;;;;14.70;8.75;;;;;;;3.66;100.00;97298.13;5021461;28;20045;-58
2021/10/24 05:19:59;;;;;;;13.98;9.15;;;;;;;3.53;100.00;97298.75;5023086;28;20473;-58
2021/10/24 05:22:29;;;;;;;13.75;9.98;;;;;;;3.59;100.00;97296.78;5034463;28;20073;-58
2021/10/24 05:24:57;;;;;;;15.13;9.35;;;;;;;3.63;100.00;97299.13;5039072;28;20505;-57
2021/10/24 05:27:26;;;;;;;16.92;9.30;;;;;;;3.65;100.00;97301.66;5029945;28;20084;-56
2021/10/24 05:29:59;;;;;;;17.30;9.80;;;;;;;3.64;100.00;97298.19;5041576;28;20129;-58
2021/10/24 05:32:28;;;;;;;18.60;9.50;;;;;;;3.50;100.00;97288.50;5020263;28;20072;-59
2021/10/24 05:34:56;;;;;;;14.73;9.70;;;;;;;3.46;100.00;97288.75;5023835;28;20092;-59
2021/10/24 05:37:25;;;;;;;12.43;9.02;;;;;;;3.37;100.00;97287.44;5022198;28;20045;-57
2021/10/24 05:39:55;;;;;;;15.68;9.52;;;;;;;3.55;100.00;97288.28;5020074;28;20551;-58
2021/10/24 05:42:23;;;;;;;17.38;9.55;;;;;;;3.53;100.00;97290.09;5023137;28;20085;-57
2021/10/24 05:44:52;;;;;;;13.93;9.93;;;;;;;3.46;100.00;97291.34;5038410;28;20084;-58
2021/10/24 05:47:20;;;;;;;16.35;9.60;;;;;;;3.60;100.00;97288.03;5044995;28;20064;-60
2021/10/24 05:49:49;;;;;;;16.23;10.65;;;;;;;3.50;100.00;97291.09;5042176;28;20516;-57
2021/10/24 05:52:18;;;;;;;16.40;10.00;;;;;;;3.76;100.00;97294.13;5045039;28;20457;-58
2021/10/24 05:54:47;;;;;;;15.43;10.13;;;;;;;3.76;100.00;97288.91;5049635;28;20084;-53
2021/10/24 05:57:17;;;;;;;17.13;10.13;;;;;;;3.86;100.00;97287.47;5046663;28;20299;-60
2021/10/24 05:59:45;;;;;;;19.20;10.63;;;;;;;3.74;100.00;97286.34;5049127;28;20326;-58
2021/10/24 06:02:14;;;;;;;16.95;10.77;;;;;;;3.88;100.00;97297.81;5042345;28;20065;-54
2021/10/24 06:04:43;;;;;;;16.45;11.00;;;;;;;4.01;100.00;97299.69;5029463;28;20109;-57
2021/10/24 06:07:11;;;;;;;16.55;10.70;;;;;;;4.07;100.00;97302.91;5024455;28;20077;-60
2021/10/24 06:09:42;;;;;;;15.10;10.23;;;;;;;4.09;100.00;97301.03;5018271;28;20068;-56
2021/10/24 06:12:14;;;;;;;16.80;10.98;;;;;;;3.97;100.00;97298.16;5030702;28;20187;-53
2021/10/24 06:14:44;;;;;;;15.52;11.07;;;;;;;4.10;100.00;97305.34;5024097;28;20046;-58
2021/10/24 06:17:13;;;;;;;13.65;10.85;;;;;;;4.20;100.00;97309.13;5025199;28;20503;-54
2021/10/24 06:19:44;;;;;;;17.35;12.50;;;;;;;4.07;100.00;97313.34;5024406;28;20069;-59
2021/10/24 06:22:12;;;;;;;17.30;11.02;;;;;;;4.01;100.00;97314.50;5021036;28;20065;-56
2021/10/24 06:24:41;;;;;;;15.10;11.23;;;;;;;4.18;100.00;97316.19;5016883;28;20679;-58
2021/10/24 06:27:09;;;;;;;20.30;11.40;;;;;;;4.07;100.00;97311.56;5029438;28;20463;-56
2021/10/24 06:29:37;;;;;;;14.73;10.73;;;;;;;4.28;100.00;97309.53;5048020;28;20060;-56
2021/10/24 06:32:07;;;;;;;17.45;11.30;;;;;;;4.39;100.00;97311.56;5050865;28;20478;-55
2021/10/24 06:34:36;;;;;;;19.25;11.93;;;;;;;4.41;100.00;97318.38;5033132;28;20061;-57
2021/10/24 06:37:04;;;;;;;16.65;12.00;;;;;;;4.66;100.00;97317.84;5041058;28;20057;-58
2021/10/24 06:39:33;;;;;;;18.40;11.65;;;;;;;4.65;100.00;97318.78;5020900;28;20082;-55
2021/10/24 06:42:06;;;;;;;19.50;11.32;;;;;;;4.64;100.00;97318.84;5032156;28;20099;-57
2021/10/24 06:44:35;;;;;;;17.42;11.32;;;;;;;4.49;100.00;97326.63;5034647;28;20097;-55
2021/10/24 06:47:03;;;;;;;18.63;11.50;;;;;;;4.89;100.00;97321.75;5032751;28;20073;-56
2021/10/24 06:49:33;;;;;;;19.73;11.93;;;;;;;4.86;100.00;97321.09;5026477;28;20077;-53
2021/10/24 06:52:05;;;;;;;16.38;10.25;;;;;;;4.86;100.00;97323.72;5044592;28;20072;-58
2021/10/24 06:54:34;;;;;;;16.05;11.65;;;;;;;4.81;100.00;97321.34;5048369;28;20399;-56
2021/10/24 06:57:03;;;;;;;16.02;10.35;;;;;;;4.75;100.00;97324.31;5039635;28;20080;-58
2021/10/24 06:59:31;;;;;;;14.75;10.90;;;;;;;4.95;100.00;97317.94;5034975;28;20072;-54
2021/10/24 07:01:59;;;;;;;19.58;11.85;;;;;;;4.94;100.00;97319.72;5026486;28;20100;-56
2021/10/24 07:04:30;;;;;;;16.50;11.43;;;;;;;5.26;100.00;97310.91;5037075;28;20057;-56
2021/10/24 07:07:00;;;;;;;18.30;11.88;;;;;;;5.09;100.00;97317.97;5037245;28;20119;-54
2021/10/24 07:09:28;;;;;;;19.17;11.45;;;;;;;5.19;100.00;97319.09;5044149;28;20083;-55
2021/10/24 07:12:10;;;;;;;16.30;11.40;;;;;;;5.25;100.00;97325.75;5046638;28;20075;-59
2021/10/24 07:14:39;;;;;;;17.40;10.57;;;;;;;5.83;100.00;97305.72;5039211;28;20496;-55
2021/10/24 07:17:07;;;;;;;15.60;10.90;;;;;;;5.39;100.00;97315.31;5036543;28;20490;-57
2021/10/24 07:19:36;;;;;;;14.68;11.00;;;;;;;5.68;100.00;97312.75;5034845;28;20461;-59
2021/10/24 07:22:06;;;;;;;13.27;10.27;;;;;;;5.89;100.00;97310.59;5025448;28;20068;-58
2021/10/24 07:24:34;;;;;;;18.00;10.77;;;;;;;6.13;100.00;97314.31;5027674;28;20089;-55
2021/10/24 07:27:03;;;;;;;16.17;10.00;;;;;;;5.91;100.00;97309.53;5049213;28;20080;-57
2021/10/24 07:29:31;;;;;;;14.23;10.80;;;;;;;6.11;100.00;97310.94;5019336;28;20073;-56
2021/10/24 07:32:00;;;;;;;15.52;11.20;;;;;;;6.30;100.00;97320.28;5027600;28;20065;-56
2021/10/24 07:34:28;;;;;;;13.73;10.70;;;;;;;6.27;100.00;97316.09;5045336;28;20061;-59
2021/10/24 07:36:57;;;;;;;14.00;10.73;;;;;;;6.33;100.00;97318.31;5047384;28;20059;-57
2021/10/24 07:39:27;;;;;;;15.05;9.32;;;;;;;6.05;100.00;97323.59;5040905;28;20075;-55
2021/10/24 07:41:56;;;;;;;18.30;10.32;;;;;;;6.48;100.00;97319.13;5049476;28;20077;-59
2021/10/24 07:44:25;;;;;;;16.50;10.77;;;;;;;6.63;100.00;97323.34;5046867;28;20065;-55
2021/10/24 07:46:56;;;;;;;14.60;10.68;;;;;;;6.79;100.00;97328.47;5048156;28;20060;-56
2021/10/24 07:49:25;;;;;;;14.05;10.38;;;;;;;7.11;100.00;97328.94;5041739;28;20437;-55
2021/10/24 07:51:54;;;;;;;15.38;10.52;;;;;;;7.00;100.00;97325.38;5044172;28;20512;-56
2021/10/24 07:54:23;;;;;;;14.52;10.38;;;;;;;7.35;100.00;97326.47;5043092;28;20076;-56
2021/10/24 07:56:53;;;;;;;15.45;11.23;;;;;;;7.04;100.00;97329.47;5024533;28;20068;-59
2021/10/24 07:59:22;;;;;;;13.60;8.88;;;;;;;7.15;100.00;97326.97;5041214;28;20073;-56
2021/10/24 08:01:51;;;;;;;16.23;10.27;;;;;;;7.58;100.00;97327.56;5027376;28;20080;-58
2021/10/24 08:04:20;;;;;;;19.58;11.52;;;;;;;7.51;100.00;97328.91;5019776;28;20095;-55
2021/10/24 08:06:49;;;;;;;14.57;10.30;;;;;;;7.53;100.00;97323.53;5028603;28;20462;-57
2021/10/24 08:09:17;;;;;;;14.55;10.00;;;;;;;7.53;100.00;97327.00;5036580;28;20073;-55
2021/10/24 08:11:48;;;;;;;15.02;9.40;;;;;;;7.59;100.00;97320.50;5046569;28;20077;-56
2021/10/24 08:14:17;;;;;;;18.17;10.55;;;;;;;7.79;100.00;97322.59;5045746;28;20068;-57
2021/10/24 08:16:46;;;;;;;16.45;9.73;;;;;;;7.75;100.00;97318.53;5032128;28;20080;-56
2021/10/24 08:19:15;;;;;;;12.60;9.98;;;;;;;7.97;100.00;97317.84;5025387;28;20789;-58
2021/10/24 08:21:44;;;;;;;12.75;10.00;;;;;;;8.11;100.00;97310.78;5026885;28;20091;-57
2021/10/24 08:24:12;;;;;;;14.88;10.52;;;;;;;8.45;100.00;97306.63;5021555;28;20088;-57
2021/10/24 08:26:41;;;;;;;14.25;10.57;;;;;;;8.72;100.00;97304.63;5016264;28;20069;-56
2021/10/24 08:29:10;;;;;;;15.73;9.55;;;;;;;8.73;100.00;97308.94;5023256;28;20088;-59
2021/10/24 08:31:43;;;;;;;12.80;9.25;;;;;;;8.69;100.00;97309.28;5016952;28;20068;-58
2021/10/24 08:34:13;;;;;;;15.40;9.52;;;;;;;8.78;100.00;97301.56;5029886;28;20065;-58
2021/10/24 08:36:42;;;;;;;11.88;8.45;;;;;;;8.69;100.00;97309.28;5037658;28;20069;-55
2021/10/24 08:39:11;;;;;;;13.10;9.05;;;;;;;9.13;100.00;97303.38;5027594;28;20089;-58
2021/10/24 08:41:40;;;;;;;13.32;9.27;;;;;;;8.72;100.00;97307.25;5025430;28;20057;-56
2021/10/24 08:44:09;;;;;;;13.88;8.65;;;;;;;9.39;100.00;97295.28;5032053;28;20128;-56
2021/10/24 08:46:38;;;;;;;11.48;8.38;;;;;;;9.27;100.00;97297.91;5042492;28;20072;-57
2021/10/24 08:49:09;;;;;;;12.00;8.65;;;;;;;10.22;100.00;97290.53;5041617;28;20174;-54
2021/10/24 08:51:38;;;;;;;10.38;7.75;;;;;;;9.13;100.00;97306.00;5042234;28;20116;-56
2021/10/24 08:54:08;;;;;;;9.13;7.93;;;;;;;9.34;100.00;97297.44;5041768;28;20741;-58
2021/10/24 08:56:37;;;;;;;13.43;9.38;;;;;;;9.69;100.00;97289.47;5037742;28;20497;-56
2021/10/24 08:59:06;;;;;;;11.93;8.20;;;;;;;9.34;100.00;97300.06;5039094;28;20485;-54
2021/10/24 09:01:35;;;;;;;12.75;8.70;;;;;;;9.58;100.00;97300.00;5042004;28;20094;-55
2021/10/24 09:04:05;;;;;;;13.18;8.18;;;;;;;9.89;100.00;97291.41;5036392;28;20076;-56
2021/10/24 09:06:45;;;;;;;;;;;;;;;9.83;100.00;97297.13;5023021;28;20077;-57
2021/10/24 09:09:14;;;;;;;9.77;7.60;;;;;;;9.72;100.00;97290.06;5045467;28;19975;-59
2021/10/24 09:11:45;;;;;;;10.98;7.85;;;;;;;9.68;100.00;97288.63;5043319;28;20408;-58
2021/10/24 09:14:14;;;;;;;12.95;7.88;;;;;;;9.78;100.00;97290.56;5036124;28;20061;-59
2021/10/24 09:16:52;;;;;;;9.68;7.47;;;;;;;9.92;100.00;97285.88;5039528;28;20552;-57
2021/10/24 09:19:21;;;;;;;12.80;7.43;;;;;;;9.74;100.00;97288.16;5030092;28;20080;-56
2021/10/24 09:21:51;;;;;;;9.55;7.70;;;;;;;10.47;100.00;97279.88;5028969;28;20067;-55
2021/10/24 09:24:19;;;;;;;9.15;7.20;;;;;;;10.36;100.00;97278.09;5031635;28;20081;-58
2021/10/24 09:26:47;;;;;;;9.98;7.70;;;;;;;10.68;100.00;97292.13;5022589;28;20671;-57
2021/10/24 09:29:17;;;;;;;11.85;7.50;;;;;;;10.59;100.00;97284.13;5021095;28;20065;-57
2021/10/24 09:31:51;;;;;;;9.97;7.80;;;;;;;10.42;100.00;97277.59;5031062;28;20068;-58
2021/10/24 09:34:21;;;;;;;13.43;7.95;;;;;;;10.82;100.00;97279.63;5038426;28;20083;-56
2021/10/24 09:36:56;;;;;;;10.57;7.30;;;;;;;11.09;100.00;97282.63;5034516;28;20092;-56
2021/10/24 09:39:28;;;;;;;10.60;7.65;;;;;;;10.77;100.00;97281.78;5017742;28;20086;-59
2021/10/24 09:42:16;;;;;;;10.98;7.60;;;;;;;10.80;100.00;97281.53;5020048;28;20089;-58
2021/10/24 09:45:02;;;;;;;13.40;7.57;;;;;;;11.06;100.00;97276.75;5037643;28;20548;-54
2021/10/24 09:47:31;;;;;;;10.10;6.80;;;;;;;10.60;100.00;97270.84;5026204;28;20091;-56
2021/10/24 09:50:00;;;;;;;11.05;7.80;;;;;;;11.20;100.00;97278.25;5035409;28;20552;-59
2021/10/24 09:52:31;;;;;;;9.57;6.70;;;;;;;10.81;100.00;97276.16;5033052;28;20073;-56
2021/10/24 09:54:59;;;;;;;9.45;7.03;;;;;;;11.01;100.00;97274.53;5024895;28;20508;-58
2021/10/24 09:57:29;;;;;;;9.48;7.35;;;;;;;11.34;100.00;97270.00;5022892;28;20092;-58
2021/10/24 09:59:57;;;;;;;10.20;6.60;;;;;;;11.43;100.00;97271.88;5031109;28;20084;-59
2021/10/24 10:02:26;;;;;;;8.27;7.25;;;;;;;11.18;100.00;97273.09;5020072;28;20537;-57
2021/10/24 10:04:55;;;;;;;12.32;6.80;;;;;;;10.99;100.00;97276.44;5030505;28;20081;-59
2021/10/24 10:07:23;;;;;;;10.05;7.60;;;;;;;11.38;100.00;97279.34;5036609;28;20520;-55
2021/10/24 10:09:54;;;;;;;9.63;7.07;;;;;;;11.72;100.00;97274.66;5030565;28;20091;-59
2021/10/24 10:12:23;;;;;;;11.10;7.57;;;;;;;11.51;100.00;97272.06;5040536;28;20127;-57
2021/10/24 10:14:57;;;;;;;8.02;6.68;;;;;;;11.98;100.00;97269.81;5030819;28;20116;-57
2021/10/24 10:17:25;;;;;;;8.10;6.50;;;;;;;11.35;100.00;97275.16;5022546;28;20068;-59
2021/10/24 10:19:54;;;;;;;11.90;7.35;;;;;;;11.99;100.00;97268.84;5019498;28;20077;-58
2021/10/24 10:22:31;;;;;;;9.35;7.22;;;;;;;12.12;100.00;97265.97;5020719;28;20054;-60
2021/10/24 10:25:02;;;;;;;10.25;6.75;;;;;;;11.79;100.00;97269.69;5021913;28;20101;-59
2021/10/24 10:27:44;;;;;;;8.95;6.82;;;;;;;12.10;100.00;97271.38;5024678;28;20088;-55
2021/10/24 10:30:32;;;;;;;8.65;6.00;;;;;;;12.69;100.00;97263.56;5046847;28;20065;-58
2021/10/24 10:33:02;;;;;;;10.18;6.55;;;;;;;12.89;100.00;97261.78;5043877;28;20513;-55
2021/10/24 10:35:31;;;;;;;9.23;6.75;;;;;;;12.85;98.43;97255.09;5026910;28;20080;-59
2021/10/24 10:38:01;;;;;;;9.88;6.85;;;;;;;12.65;100.00;97260.38;5024388;28;20077;-57
2021/10/24 10:40:33;;;;;;;9.57;7.10;;;;;;;12.52;97.82;97263.25;5025201;28;20104;-57
2021/10/24 10:43:06;;;;;;;9.45;7.15;;;;;;;12.61;100.00;97263.44;5024554;28;20065;-61
2021/10/24 10:45:46;;;;;;;10.38;7.00;;;;;;;12.62;96.76;97260.63;5025861;28;20081;-57
2021/10/24 10:48:26;;;;;;;11.77;7.80;;;;;;;12.85;97.24;97263.88;5029990;28;20302;-57
2021/10/24 10:50:57;;;;;;;7.50;6.28;;;;;;;12.86;98.65;97260.22;5039984;28;20408;-58
2021/10/24 10:53:55;;;;;;;16.15;9.60;;;;;;;12.29;100.00;97253.91;5040410;28;20079;-57
2021/10/24 10:56:27;;;;;;;14.90;7.82;;;;;;;12.64;94.52;97250.75;5004816;28;20061;-58
2021/10/24 10:58:57;;;;;;;10.63;6.35;;;;;;;13.04;95.65;97245.34;5030614;28;20088;-56
2021/10/24 11:01:37;;;;;;;7.77;6.90;;;;;;;12.74;95.29;97243.66;5033611;28;20453;-59
2021/10/24 11:04:17;;;;;;;6.93;5.90;;;;;;;13.15;89.38;97246.16;5043162;28;20487;-56
2021/10/24 11:06:57;;;;;;;7.53;5.93;;;;;;;13.24;90.44;97242.69;5029562;28;20449;-58
2021/10/24 11:09:48;;;;;;;9.40;7.40;;;;;;;13.49;85.60;97234.13;5042104;28;20044;-57
2021/10/24 11:12:38;;;;;;;8.55;6.30;;;;;;;13.52;87.32;97227.69;5020883;28;20096;-56
2021/10/24 11:15:18;;;;;;;8.77;6.22;;;;;;;13.04;92.75;97233.88;5024366;28;20112;-57
2021/10/24 11:17:49;;;;;;;10.60;6.10;;;;;;;13.47;85.13;97220.19;5016312;28;20042;-58
2021/10/24 11:20:29;;;;;;;11.10;6.63;;;;;;;13.29;88.88;97217.44;5039959;28;20072;-57
2021/10/24 11:23:02;;;;;;;7.47;5.30;;;;;;;13.56;88.17;97207.03;5030578;28;20065;-54
2021/10/24 11:25:51;;;;;;;8.60;5.95;;;;;;;13.01;92.60;97219.13;5015508;28;20060;-57
2021/10/24 11:28:25;;;;;;;7.00;5.65;;;;;;;13.47;84.50;97211.41;5024071;28;20065;-56
2021/10/24 11:31:01;;;;;;;9.35;5.70;;;;;;;13.78;81.10;97206.69;5022851;28;20074;-58
2021/10/24 11:33:44;;;;;;;7.85;5.68;;;;;;;13.76;82.83;97198.88;5040071;28;20087;-59
2021/10/24 11:36:14;;;;;;;9.73;5.60;;;;;;;13.10;90.32;97209.50;5017751;28;20096;-59
2021/10/24 11:38:43;;;;;;;6.93;5.95;;;;;;;13.37;84.82;97195.53;5040486;28;21317;-57